createdAt,value
2022-08-20T00:01:01.511Z,55.9
2022-08-20T00:01:55.348Z,56.3
2022-08-20T00:02:56.207Z,56.4
2022-08-20T00:03:57.303Z,56.5
2022-08-20T00:04:58.352Z,56.5
2022-08-20T00:05:59.332Z,56.3
2022-08-20T00:07:00.313Z,56.2
2022-08-20T00:08:01.391Z,56.1
2022-08-20T00:09:02.371Z,55.9
2022-08-20T00:10:03.412Z,55.8
2022-08-20T00:11:04.331Z,55.8
2022-08-20T00:12:05.334Z,55.8
2022-08-20T00:13:06.391Z,55.7
2022-08-20T00:14:07.401Z,55.9
2022-08-20T00:15:08.391Z,56
2022-08-20T00:16:09.372Z,56
2022-08-20T00:17:10.311Z,56
2022-08-20T00:18:12.333Z,56.1
2022-08-20T00:19:12.411Z,56.1
2022-08-20T00:20:13.413Z,56.4
2022-08-20T00:21:18.952Z,56.4
2022-08-20T00:22:15.332Z,56.2
2022-08-20T00:23:16.375Z,56.3
2022-08-20T00:24:17.411Z,56.5
2022-08-20T00:25:18.312Z,56.7
2022-08-20T00:26:19.332Z,56.9
2022-08-20T00:27:20.311Z,57
2022-08-20T00:28:21.333Z,57.3
2022-08-20T00:29:22.619Z,57.6
2022-08-20T00:30:23.454Z,57.6
2022-08-20T00:31:24.372Z,57.9
2022-08-20T00:32:25.391Z,58.4
2022-08-20T00:33:26.411Z,58.6
2022-08-20T00:34:27.492Z,58.7
2022-08-20T00:35:28.580Z,58.8
2022-08-20T00:36:32.422Z,58.8
2022-08-20T00:37:31.353Z,58.8
2022-08-20T00:38:32.351Z,58.9
2022-08-20T00:39:33.349Z,59
2022-08-20T00:40:34.331Z,59
2022-08-20T00:41:35.358Z,59.1
2022-08-20T00:42:36.352Z,59.6
2022-08-20T00:43:37.334Z,60
2022-08-20T00:44:38.354Z,60.1
2022-08-20T00:45:39.392Z,60.2
2022-08-20T00:46:40.390Z,60.2
2022-08-20T00:47:41.391Z,60.1
2022-08-20T00:48:42.316Z,60.5
2022-08-20T00:49:43.451Z,60.6
2022-08-20T00:50:44.351Z,61
2022-08-20T00:51:45.352Z,60.9
2022-08-20T00:52:49.832Z,61
2022-08-20T00:53:47.392Z,61
2022-08-20T00:54:48.391Z,61.2
2022-08-20T00:55:49.351Z,61.3
2022-08-20T00:56:50.611Z,61.1
2022-08-20T00:57:59.870Z,61.7
2022-08-20T00:58:53.412Z,61.8
2022-08-20T00:59:54.331Z,62
2022-08-20T01:04:09.431Z,62.2
2022-08-20T01:05:10.370Z,62.2
2022-08-20T01:06:11.371Z,62.2
2022-08-20T01:07:12.451Z,62.4
2022-08-20T01:08:13.408Z,62.5
2022-08-20T01:09:14.352Z,62.8
2022-08-20T01:10:15.659Z,62.9
2022-08-20T01:11:17.392Z,63
2022-08-20T01:12:18.355Z,63.2
2022-08-20T01:13:19.371Z,63.4
2022-08-20T01:14:20.396Z,63.5
2022-08-20T01:15:21.452Z,63.6
2022-08-20T01:16:22.391Z,63.4
2022-08-20T01:17:23.373Z,63.7
2022-08-20T01:18:24.473Z,63.7
2022-08-20T01:19:29.289Z,63.7
2022-08-20T01:20:26.594Z,63.7
2022-08-20T01:21:28.471Z,63.7
2022-08-20T01:22:29.375Z,63.9
2022-08-20T01:23:30.545Z,63.8
2022-08-20T01:24:31.393Z,63.8
2022-08-20T01:25:32.511Z,63.8
2022-08-20T01:26:33.411Z,64
2022-08-20T01:27:34.973Z,63.9
2022-08-20T01:28:35.390Z,63.8
2022-08-20T01:29:36.351Z,63.7
2022-08-20T01:30:37.480Z,63.7
2022-08-20T01:31:38.351Z,63.7
2022-08-20T01:33:09.891Z,63.8
2022-08-20T01:34:12.611Z,63.8
2022-08-20T01:35:14.392Z,63.8
2022-08-20T01:36:15.391Z,63.8
2022-08-20T01:37:16.372Z,63.8
2022-08-20T01:38:17.391Z,63.9
2022-08-20T01:39:18.411Z,63.9
2022-08-20T01:40:19.414Z,63.9
2022-08-20T01:41:22.820Z,63.9
2022-08-20T01:42:21.451Z,63.9
2022-08-20T01:43:22.471Z,63.7
2022-08-20T01:44:24.488Z,63.7
2022-08-20T01:45:26.861Z,63.8
2022-08-20T01:46:25.434Z,63.7
2022-08-20T01:47:26.551Z,63.8
2022-08-20T01:48:28.631Z,63.8
2022-08-20T01:49:30.391Z,63.8
2022-08-20T01:50:31.411Z,63.6
2022-08-20T01:51:32.411Z,63.8
2022-08-20T01:52:33.471Z,63.8
2022-08-20T01:53:34.393Z,63.9
2022-08-20T01:54:35.451Z,64
2022-08-20T01:55:36.432Z,64
2022-08-20T01:56:37.451Z,64
2022-08-20T01:57:38.351Z,64
2022-08-20T01:58:39.391Z,64
2022-08-20T01:59:40.352Z,64
2022-08-20T02:00:41.411Z,63.5
2022-08-20T02:01:46.595Z,63.9
2022-08-20T02:02:44.360Z,63.9
2022-08-20T02:03:45.332Z,63.8
2022-08-20T02:04:46.431Z,63.8
2022-08-20T02:05:47.432Z,63.9
2022-08-20T02:06:56.959Z,63.9
2022-08-20T02:07:49.466Z,63.9
2022-08-20T02:08:50.839Z,63.8
2022-08-20T02:09:52.531Z,63.8
2022-08-20T02:10:53.432Z,63.9
2022-08-20T02:11:54.351Z,63.9
2022-08-20T02:12:55.432Z,64
2022-08-20T02:13:56.400Z,64
2022-08-20T02:14:57.432Z,63.8
2022-08-20T02:15:58.408Z,63.9
2022-08-20T02:16:59.431Z,64
2022-08-20T02:18:00.393Z,64.2
2022-08-20T02:19:01.427Z,64.3
2022-08-20T02:20:02.530Z,64.3
2022-08-20T02:21:03.411Z,64.1
2022-08-20T02:22:04.510Z,64.1
2022-08-20T02:23:05.433Z,64.1
2022-08-20T02:24:06.451Z,64
2022-08-20T02:25:07.393Z,64.1
2022-08-20T02:26:08.407Z,64
2022-08-20T02:27:09.451Z,64.1
2022-08-20T02:28:10.433Z,64.2
2022-08-20T02:29:11.411Z,64.2
2022-08-20T02:30:20.017Z,64.1
2022-08-20T02:31:13.465Z,64
2022-08-20T02:32:23.870Z,64
2022-08-20T02:33:15.431Z,63.9
2022-08-20T02:34:22.593Z,63.9
2022-08-20T02:35:17.412Z,63.9
2022-08-20T02:36:18.407Z,64
2022-08-20T02:37:19.432Z,64.1
2022-08-20T02:38:20.411Z,64.1
2022-08-20T02:39:21.395Z,64
2022-08-20T02:40:27.031Z,64
2022-08-20T02:41:23.452Z,64.1
2022-08-20T02:42:24.411Z,64.2
2022-08-20T02:43:25.451Z,63.9
2022-08-20T02:44:26.497Z,64.2
2022-08-20T02:45:27.634Z,64.3
2022-08-20T02:46:29.813Z,64.3
2022-08-20T02:47:31.392Z,64.1
2022-08-20T02:48:32.560Z,64.2
2022-08-20T02:49:33.472Z,64.2
2022-08-20T02:50:34.442Z,64.3
2022-08-20T02:51:35.532Z,63.9
2022-08-20T02:52:36.494Z,64.3
2022-08-20T02:53:37.452Z,64.4
2022-08-20T02:54:38.451Z,64.4
2022-08-20T02:55:39.472Z,64.5
2022-08-20T02:56:45.811Z,64.5
2022-08-20T02:57:47.431Z,64.6
2022-08-20T02:58:48.434Z,64.7
2022-08-20T02:59:50.072Z,64.7
2022-08-20T03:00:51.432Z,64.7
2022-08-20T03:01:55.894Z,64.7
2022-08-20T03:02:53.434Z,64.7
2022-08-20T03:03:54.385Z,64.6
2022-08-20T03:04:55.413Z,64.6
2022-08-20T03:05:56.431Z,64.6
2022-08-20T03:06:57.472Z,64.6
2022-08-20T03:07:58.519Z,64.6
2022-08-20T03:08:59.431Z,64.7
2022-08-20T03:10:00.431Z,64.7
2022-08-20T03:11:01.491Z,64.8
2022-08-20T03:12:02.424Z,65
2022-08-20T03:13:03.501Z,65
2022-08-20T03:14:04.413Z,65.1
2022-08-20T03:15:05.492Z,65.2
2022-08-20T03:16:06.572Z,65.1
2022-08-20T03:17:07.471Z,65
2022-08-20T03:18:08.432Z,65.1
2022-08-20T03:19:09.452Z,65.2
2022-08-20T03:20:10.533Z,65.1
2022-08-20T03:21:11.431Z,64.7
2022-08-20T03:22:12.552Z,65
2022-08-20T03:23:13.451Z,65.1
2022-08-20T03:24:14.534Z,65.1
2022-08-20T03:25:15.451Z,65.2
2022-08-20T03:26:16.443Z,65.4
2022-08-20T03:27:17.512Z,65.6
2022-08-20T03:28:18.520Z,65.8
2022-08-20T03:29:19.491Z,65.9
2022-08-20T03:30:20.512Z,66
2022-08-20T03:31:21.433Z,65.9
2022-08-20T03:32:22.552Z,65.9
2022-08-20T03:33:23.511Z,65.9
2022-08-20T03:34:24.352Z,65.8
2022-08-20T03:35:25.492Z,65.7
2022-08-20T03:36:27.884Z,65.7
2022-08-20T03:37:27.666Z,65.9
2022-08-20T03:38:32.755Z,65.8
2022-08-20T03:39:30.433Z,65.9
2022-08-20T03:40:31.433Z,65.9
2022-08-20T03:41:32.515Z,65.9
2022-08-20T03:42:33.531Z,65.9
2022-08-20T03:43:34.472Z,66
2022-08-20T03:44:35.511Z,65.9
2022-08-20T03:45:36.532Z,65.9
2022-08-20T03:46:37.551Z,65.7
2022-08-20T03:47:38.316Z,65.5
2022-08-20T03:48:39.495Z,65.5
2022-08-20T03:49:40.532Z,65.4
2022-08-20T03:50:41.493Z,65.4
2022-08-20T03:51:56.439Z,65.4
2022-08-20T03:52:43.513Z,65.1
2022-08-20T03:53:44.384Z,65.1
2022-08-20T03:54:45.472Z,65.1
2022-08-20T03:55:46.453Z,65.2
2022-08-20T03:56:47.520Z,65.1
2022-08-20T03:57:48.559Z,65
2022-08-20T03:58:49.516Z,65
2022-08-20T03:59:54.752Z,64.4
2022-08-20T04:00:52.595Z,64.8
2022-08-20T04:01:53.614Z,64.8
2022-08-20T04:02:54.551Z,64.8
2022-08-20T04:03:55.512Z,64.7
2022-08-20T04:04:56.492Z,64.6
2022-08-20T04:05:57.452Z,64.7
2022-08-20T04:06:58.573Z,64.7
2022-08-20T04:08:00.161Z,64.7
2022-08-20T04:09:00.451Z,64.9
2022-08-20T04:10:01.572Z,65
2022-08-20T04:11:02.471Z,64.9
2022-08-20T04:12:03.592Z,64.8
2022-08-20T04:13:04.512Z,64.8
2022-08-20T04:14:05.712Z,64.8
2022-08-20T04:15:07.464Z,64.9
2022-08-20T04:16:08.512Z,65.2
2022-08-20T04:17:09.573Z,65.1
2022-08-20T04:18:10.514Z,65.1
2022-08-20T04:19:11.532Z,65
2022-08-20T04:20:12.512Z,64.8
2022-08-20T04:21:13.472Z,64.8
2022-08-20T04:22:14.451Z,64.7
2022-08-20T04:23:15.676Z,64.8
2022-08-20T04:24:22.057Z,64.9
2022-08-20T04:25:18.552Z,64.9
2022-08-20T04:26:19.512Z,64.5
2022-08-20T04:27:20.491Z,65.2
2022-08-20T04:28:21.532Z,65.6
2022-08-20T04:29:22.551Z,65.1
2022-08-20T04:30:23.513Z,65.8
2022-08-20T04:31:25.281Z,65.9
2022-08-20T04:32:25.511Z,65.8
2022-08-20T04:33:33.660Z,65.7
2022-08-20T04:34:27.731Z,65.6
2022-08-20T04:35:29.531Z,65.6
2022-08-20T04:36:30.494Z,65.6
2022-08-20T04:37:31.491Z,65.6
2022-08-20T04:38:47.727Z,65.5
2022-08-20T04:39:33.669Z,65.4
2022-08-20T04:40:34.434Z,65.3
2022-08-20T04:41:35.572Z,65.1
2022-08-20T04:42:36.571Z,65
2022-08-20T04:43:37.552Z,65
2022-08-20T04:44:38.592Z,64.7
2022-08-20T04:45:39.571Z,65.3
2022-08-20T04:46:40.552Z,65.8
2022-08-20T04:47:41.341Z,66.3
2022-08-20T04:48:42.482Z,66.8
2022-08-20T04:49:43.711Z,67
2022-08-20T04:50:45.531Z,67.2
2022-08-20T04:51:46.494Z,67.2
2022-08-20T04:52:47.472Z,67.6
2022-08-20T04:53:50.363Z,67.6
2022-08-20T04:54:49.633Z,67.5
2022-08-20T04:55:50.951Z,67.3
2022-08-20T04:56:52.552Z,67.3
2022-08-20T04:57:53.572Z,67.5
2022-08-20T04:58:54.559Z,67.2
2022-08-20T04:59:59.343Z,66.9
2022-08-20T05:00:56.582Z,66.6
2022-08-20T05:01:57.551Z,66.4
2022-08-20T05:02:58.531Z,66.1
2022-08-20T05:03:59.492Z,65.9
2022-08-20T05:05:00.511Z,65.7
2022-08-20T05:06:01.533Z,65.6
2022-08-20T05:07:02.477Z,65.6
2022-08-20T05:08:03.519Z,65.6
2022-08-20T05:09:04.561Z,65.6
2022-08-20T05:10:05.552Z,65.9
2022-08-20T05:11:33.238Z,66.3
2022-08-20T05:12:07.551Z,66.5
2022-08-20T05:13:08.512Z,67.3
2022-08-20T05:14:09.785Z,68.2
2022-08-20T05:15:10.612Z,68.9
2022-08-20T05:16:11.769Z,69.4
2022-08-20T05:17:13.791Z,69.7
2022-08-20T05:18:15.732Z,70.1
2022-08-20T05:19:17.552Z,70.2
2022-08-20T05:20:18.515Z,70.1
2022-08-20T05:21:19.491Z,70.1
2022-08-20T05:22:20.612Z,70
2022-08-20T05:23:21.615Z,69.9
2022-08-20T05:24:22.540Z,69.9
2022-08-20T05:25:23.660Z,69.6
2022-08-20T05:26:24.557Z,69.8
2022-08-20T05:27:25.632Z,69.5
2022-08-20T05:28:26.495Z,69.2
2022-08-20T05:29:27.671Z,69.3
2022-08-20T05:30:29.692Z,69.3
2022-08-20T05:31:31.176Z,69.3
2022-08-20T05:32:31.572Z,69
2022-08-20T05:33:32.652Z,68.8
2022-08-20T05:34:33.620Z,68.4
2022-08-20T05:35:34.512Z,67.9
2022-08-20T05:36:35.472Z,68
2022-08-20T05:37:36.592Z,67.9
2022-08-20T05:38:37.551Z,67.8
2022-08-20T05:39:38.677Z,67.8
2022-08-20T05:40:39.532Z,67.5
2022-08-20T05:41:40.552Z,67.7
2022-08-20T05:42:41.632Z,67.7
2022-08-20T05:43:42.532Z,67.4
2022-08-20T05:44:43.573Z,67.2
2022-08-20T05:45:44.551Z,67.1
2022-08-20T05:46:45.593Z,66.8
2022-08-20T05:47:46.560Z,66.8
2022-08-20T05:48:47.572Z,66.6
2022-08-20T05:49:48.593Z,66.7
2022-08-20T05:50:49.594Z,66.7
2022-08-20T05:51:51.152Z,66.5
2022-08-20T05:52:52.575Z,66.9
2022-08-20T05:53:53.556Z,67
2022-08-20T05:54:54.572Z,67.2
2022-08-20T05:55:55.532Z,67.3
2022-08-20T05:56:56.599Z,67.3
2022-08-20T05:57:57.661Z,67.2
2022-08-20T05:58:58.553Z,67
2022-08-20T05:59:59.592Z,67.2
2022-08-20T06:01:00.610Z,67
2022-08-20T06:02:01.534Z,66.8
2022-08-20T06:03:02.537Z,66.8
2022-08-20T06:04:03.552Z,66.7
2022-08-20T06:05:04.660Z,66.8
2022-08-20T06:06:05.621Z,66.8
2022-08-20T06:07:06.634Z,66.5
2022-08-20T06:08:08.159Z,66.5
2022-08-20T06:09:08.592Z,66.5
2022-08-20T06:10:09.655Z,66
2022-08-20T06:11:10.594Z,66.1
2022-08-20T06:12:11.572Z,65.8
2022-08-20T06:13:13.782Z,65.7
2022-08-20T06:14:13.602Z,65.8
2022-08-20T06:15:14.591Z,65.6
2022-08-20T06:16:15.572Z,65.4
2022-08-20T06:17:16.593Z,65.5
2022-08-20T06:18:28.183Z,65.2
2022-08-20T06:19:21.755Z,64.9
2022-08-20T06:20:19.600Z,64.9
2022-08-20T06:21:20.532Z,64.7
2022-08-20T06:22:27.248Z,65
2022-08-20T06:23:22.627Z,65
2022-08-20T06:24:23.592Z,64.6
2022-08-20T06:25:24.591Z,64.6
2022-08-20T06:26:29.783Z,64.9
2022-08-20T06:27:26.572Z,64.5
2022-08-20T06:28:27.692Z,64.5
2022-08-20T06:29:28.772Z,64.7
2022-08-20T06:30:30.672Z,64.4
2022-08-20T06:31:31.534Z,64.4
2022-08-20T06:32:33.028Z,64.2
2022-08-20T06:33:33.576Z,63.7
2022-08-20T06:34:34.531Z,64
2022-08-20T06:35:35.613Z,63.7
2022-08-20T06:36:36.573Z,63.8
2022-08-20T06:37:37.642Z,64
2022-08-20T06:38:38.795Z,63.5
2022-08-20T06:39:39.621Z,63.7
2022-08-20T06:40:40.632Z,64.1
2022-08-20T06:41:41.592Z,64.3
2022-08-20T06:42:47.403Z,64.3
2022-08-20T06:43:43.572Z,64.2
2022-08-20T06:44:44.638Z,64.2
2022-08-20T06:45:45.612Z,64.3
2022-08-20T06:46:46.612Z,64.4
2022-08-20T06:47:47.593Z,64.3
2022-08-20T06:48:48.593Z,64.1
2022-08-20T06:49:49.571Z,64.2
2022-08-20T06:50:51.053Z,64.3
2022-08-20T06:51:52.671Z,64.2
2022-08-20T06:52:53.579Z,64.7
2022-08-20T06:53:54.611Z,64.8
2022-08-20T06:54:55.712Z,64.7
2022-08-20T06:55:56.656Z,65.1
2022-08-20T06:56:57.579Z,65.4
2022-08-20T06:57:58.592Z,65.6
2022-08-20T06:58:59.812Z,65.8
2022-08-20T07:00:01.556Z,65.7
2022-08-20T07:01:05.123Z,65.7
2022-08-20T07:02:03.631Z,65.8
2022-08-20T07:03:04.572Z,65.8
2022-08-20T07:04:05.673Z,65.4
2022-08-20T07:05:06.612Z,65.2
2022-08-20T07:06:07.580Z,64.9
2022-08-20T07:07:08.571Z,64.9
2022-08-20T07:08:09.612Z,65.1
2022-08-20T07:09:10.671Z,64.8
2022-08-20T07:10:11.606Z,64.8
2022-08-20T07:11:12.652Z,64.7
2022-08-20T07:12:13.592Z,64.5
2022-08-20T07:13:14.572Z,64.3
2022-08-20T07:14:15.631Z,64.4
2022-08-20T07:15:16.711Z,64.4
2022-08-20T07:16:17.612Z,63.8
2022-08-20T07:17:18.575Z,63.5
2022-08-20T07:18:27.820Z,63.1
2022-08-20T07:19:20.661Z,62.9
2022-08-20T07:20:21.612Z,63.5
2022-08-20T07:21:22.733Z,63.9
2022-08-20T07:22:23.557Z,63.6
2022-08-20T07:23:24.672Z,63.5
2022-08-20T07:24:25.611Z,63.2
2022-08-20T07:25:26.586Z,63.2
2022-08-20T07:26:27.632Z,62.4
2022-08-20T07:27:28.777Z,62.4
2022-08-20T07:28:29.794Z,62.5
2022-08-20T07:29:30.673Z,62.2
2022-08-20T07:30:31.634Z,62.2
2022-08-20T07:31:32.811Z,62.2
2022-08-20T07:32:35.718Z,61.9
2022-08-20T07:33:35.580Z,61.9
2022-08-20T07:34:36.613Z,62.4
2022-08-20T07:35:37.651Z,62.7
2022-08-20T07:36:38.553Z,62.2
2022-08-20T07:37:39.610Z,62
2022-08-20T07:38:40.619Z,62.1
2022-08-20T07:39:41.733Z,61.9
2022-08-20T07:40:42.651Z,61.8
2022-08-20T07:41:43.731Z,61.4
2022-08-20T07:42:44.611Z,61.1
2022-08-20T07:43:45.847Z,60.9
2022-08-20T07:44:46.632Z,60.7
2022-08-20T07:45:47.712Z,60.5
2022-08-20T07:46:48.612Z,61
2022-08-20T07:47:49.632Z,60.7
2022-08-20T07:48:51.215Z,60.7
2022-08-20T07:49:52.651Z,60.9
2022-08-20T07:50:53.693Z,60.7
2022-08-20T07:51:54.633Z,60.2
2022-08-20T07:52:55.802Z,60.4
2022-08-20T07:53:56.672Z,59.9
2022-08-20T07:54:57.623Z,59.8
2022-08-20T07:55:58.911Z,59.7
2022-08-20T07:56:59.799Z,59.5
2022-08-20T07:58:00.593Z,59.8
2022-08-20T07:59:01.591Z,59.8
2022-08-20T08:00:02.823Z,60
2022-08-20T08:01:04.741Z,59.9
2022-08-20T08:02:05.712Z,59.7
2022-08-20T08:03:06.657Z,60
2022-08-20T08:04:07.632Z,59.9
2022-08-20T08:05:08.673Z,59.5
2022-08-20T08:06:09.641Z,59.3
2022-08-20T08:07:10.672Z,58.8
2022-08-20T08:08:11.741Z,58.3
2022-08-20T08:09:12.611Z,58.6
2022-08-20T08:10:13.641Z,59.3
2022-08-20T08:11:14.633Z,59.5
2022-08-20T08:12:15.712Z,59.2
2022-08-20T08:13:16.693Z,59.6
2022-08-20T08:14:17.652Z,59.8
2022-08-20T08:15:18.611Z,59.7
2022-08-20T08:16:19.652Z,59.9
2022-08-20T08:17:20.734Z,60.4
2022-08-20T08:18:21.653Z,60.6
2022-08-20T08:19:22.791Z,60.9
2022-08-20T08:20:23.732Z,60.7
2022-08-20T08:21:24.672Z,60.6
2022-08-20T08:22:25.691Z,60.8
2022-08-20T08:23:31.637Z,60.6
2022-08-20T08:24:28.545Z,60
2022-08-20T08:25:28.960Z,58.8
2022-08-20T08:26:30.874Z,59.5
2022-08-20T08:27:32.697Z,59.6
2022-08-20T08:28:33.653Z,59.9
2022-08-20T08:29:34.700Z,59.8
2022-08-20T08:30:35.584Z,59.5
2022-08-20T08:31:36.720Z,58.3
2022-08-20T08:32:37.651Z,58.1
2022-08-20T08:33:38.651Z,58.5
2022-08-20T08:34:39.632Z,58.3
2022-08-20T08:35:40.809Z,58.1
2022-08-20T08:36:41.614Z,59.5
2022-08-20T08:37:42.681Z,58.6
2022-08-20T08:38:43.612Z,58.7
2022-08-20T08:39:44.679Z,58.5
2022-08-20T08:40:45.652Z,56.2
2022-08-20T08:41:46.660Z,56.9
2022-08-20T08:42:47.651Z,55.6
2022-08-20T08:43:48.692Z,56.6
2022-08-20T08:44:49.672Z,57.3
2022-08-20T08:45:51.352Z,58.2
2022-08-20T08:46:52.699Z,58.2
2022-08-20T08:47:53.615Z,57.9
2022-08-20T08:48:54.631Z,57.8
2022-08-20T08:49:55.660Z,58.5
2022-08-20T08:50:56.759Z,58.5
2022-08-20T08:51:57.671Z,57.9
2022-08-20T08:52:58.672Z,57.3
2022-08-20T08:54:03.395Z,56.8
2022-08-20T08:55:00.632Z,57.1
2022-08-20T08:56:01.770Z,56.9
2022-08-20T08:57:02.614Z,56.8
2022-08-20T08:58:04.260Z,56.4
2022-08-20T08:59:04.652Z,55.8
2022-08-20T09:00:05.798Z,55.6
2022-08-20T09:01:09.357Z,54.9
2022-08-20T09:02:07.790Z,54.7
2022-08-20T09:03:08.678Z,54.3
2022-08-20T09:04:09.671Z,53.9
2022-08-20T09:05:10.680Z,54
2022-08-20T09:06:11.682Z,54.5
2022-08-20T09:07:12.776Z,53.7
2022-08-20T09:08:16.783Z,52.9
2022-08-20T09:09:14.671Z,53.1
2022-08-20T09:10:15.652Z,52.6
2022-08-20T09:11:16.682Z,53
2022-08-20T09:12:17.694Z,51.5
2022-08-20T09:13:18.652Z,51.6
2022-08-20T09:14:19.692Z,50.9
2022-08-20T09:15:20.653Z,50.1
2022-08-20T09:16:21.902Z,50.7
2022-08-20T09:17:23.673Z,51
2022-08-20T09:18:24.672Z,51.3
2022-08-20T09:19:25.711Z,51.4
2022-08-20T09:20:27.060Z,51.4
2022-08-20T09:21:27.708Z,51.5
2022-08-20T09:22:28.815Z,51.8
2022-08-20T09:23:29.913Z,51.2
2022-08-20T09:24:31.693Z,50.6
2022-08-20T09:25:32.729Z,50.6
2022-08-20T09:26:35.330Z,51.1
2022-08-20T09:27:34.652Z,51.7
2022-08-20T09:28:37.175Z,53
2022-08-20T09:29:36.779Z,54.2
2022-08-20T09:30:37.832Z,54.2
2022-08-20T09:31:38.913Z,53.3
2022-08-20T09:32:39.771Z,53.4
2022-08-20T09:33:40.709Z,53.8
2022-08-20T09:34:41.713Z,53.8
2022-08-20T09:35:42.734Z,54.1
2022-08-20T09:36:43.693Z,55
2022-08-20T09:37:44.703Z,56.3
2022-08-20T09:38:45.693Z,56.2
2022-08-20T09:39:46.747Z,56.4
2022-08-20T09:40:47.722Z,56.7
2022-08-20T09:41:48.740Z,56.9
2022-08-20T09:42:49.680Z,57.6
2022-08-20T09:43:50.712Z,57.5
2022-08-20T09:44:51.753Z,57.7
2022-08-20T09:45:52.753Z,57.2
2022-08-20T09:46:53.720Z,57.4
2022-08-20T09:47:56.236Z,56.8
2022-08-20T09:48:55.844Z,56.2
2022-08-20T09:49:56.735Z,55.9
2022-08-20T09:50:57.793Z,55.8
2022-08-20T09:51:58.695Z,55.4
2022-08-20T09:52:59.693Z,55.4
2022-08-20T09:54:00.732Z,55.9
2022-08-20T09:55:01.733Z,55.8
2022-08-20T09:56:02.693Z,55.6
2022-08-20T09:57:03.719Z,55.9
2022-08-20T09:58:04.673Z,55.3
2022-08-20T09:59:05.731Z,55.1
2022-08-20T10:00:07.014Z,54.2
2022-08-20T10:01:13.822Z,54.2
2022-08-20T10:02:09.758Z,54.4
2022-08-20T10:03:10.693Z,53.7
2022-08-20T10:04:11.731Z,53.4
2022-08-20T10:05:12.800Z,52.9
2022-08-20T10:06:13.671Z,52.6
2022-08-20T10:07:15.867Z,52.7
2022-08-20T10:08:15.674Z,53
2022-08-20T10:09:16.712Z,53.2
2022-08-20T10:10:17.752Z,53.5
2022-08-20T10:11:18.732Z,53.3
2022-08-20T10:12:19.744Z,53.7
2022-08-20T10:13:20.673Z,54.4
2022-08-20T10:14:21.780Z,54.8
2022-08-20T10:15:22.712Z,54
2022-08-20T10:16:23.806Z,54.7
2022-08-20T10:17:24.713Z,55.9
2022-08-20T10:18:25.751Z,56
2022-08-20T10:19:26.792Z,56.4
2022-08-20T10:20:27.832Z,55.2
2022-08-20T10:21:29.075Z,54.6
2022-08-20T10:22:30.940Z,54.3
2022-08-20T10:23:32.752Z,54.5
2022-08-20T10:24:33.752Z,53.5
2022-08-20T10:25:34.811Z,53.2
2022-08-20T10:26:35.619Z,53.3
2022-08-20T10:27:36.973Z,52.6
2022-08-20T10:28:38.735Z,51.6
2022-08-20T10:29:41.418Z,51.5
2022-08-20T10:30:40.812Z,51.4
2022-08-20T10:31:41.731Z,52
2022-08-20T10:32:42.847Z,50.5
2022-08-20T10:33:43.732Z,50
2022-08-20T10:34:45.113Z,50.1
2022-08-20T10:35:46.733Z,49.2
2022-08-20T10:36:50.731Z,49
2022-08-20T10:37:52.000Z,49.2
2022-08-20T10:38:52.771Z,49.3
2022-08-20T10:39:53.767Z,49.3
2022-08-20T10:40:54.732Z,49.5
2022-08-20T10:41:55.771Z,49.5
2022-08-20T10:42:56.745Z,48.8
2022-08-20T10:43:57.744Z,48.3
2022-08-20T10:44:58.892Z,48.3
2022-08-20T10:46:00.852Z,48.4
2022-08-20T10:47:01.879Z,48.8
2022-08-20T10:48:04.012Z,48.9
2022-08-20T10:49:05.972Z,49.2
2022-08-20T10:50:07.797Z,49.8
2022-08-20T10:51:08.772Z,50.1
2022-08-20T10:52:09.899Z,50.1
2022-08-20T10:53:10.811Z,49.8
2022-08-20T10:54:12.192Z,49.6
2022-08-20T10:55:12.873Z,49.3
2022-08-20T10:56:15.580Z,49.2
2022-08-20T10:57:14.837Z,49.2
2022-08-20T10:58:15.757Z,49.4
2022-08-20T10:59:16.856Z,49.1
2022-08-20T11:00:17.912Z,49
2022-08-20T11:01:28.818Z,48.4
2022-08-20T11:02:19.810Z,48.8
2022-08-20T11:03:20.752Z,48.7
2022-08-20T11:04:21.773Z,48.1
2022-08-20T11:05:22.741Z,47.9
2022-08-20T11:06:23.791Z,48.3
2022-08-20T11:07:49.412Z,48.6
2022-08-20T11:08:33.385Z,48.6
2022-08-20T11:09:27.832Z,48.9
2022-08-20T11:10:28.795Z,48.3
2022-08-20T11:11:29.916Z,48.3
2022-08-20T11:12:31.720Z,49.2
2022-08-20T11:13:32.812Z,49.4
2022-08-20T11:14:33.731Z,49.3
2022-08-20T11:15:34.798Z,49.6
2022-08-20T11:16:35.791Z,49.7
2022-08-20T11:17:37.180Z,48.7
2022-08-20T11:18:39.690Z,49.1
2022-08-20T11:19:40.961Z,48.5
2022-08-20T11:20:42.991Z,48
2022-08-20T11:21:44.859Z,47.9
2022-08-20T11:22:45.919Z,47.6
2022-08-20T11:23:47.792Z,47.2
2022-08-20T11:24:48.813Z,47
2022-08-20T11:25:49.774Z,47.4
2022-08-20T11:26:50.932Z,47.6
2022-08-20T11:27:51.832Z,48.3
2022-08-20T11:28:52.799Z,47.5
2022-08-20T11:29:53.892Z,47
2022-08-20T11:30:54.831Z,47.1
2022-08-20T11:31:55.832Z,47
2022-08-20T11:32:56.794Z,46.3
2022-08-20T11:33:57.819Z,46
2022-08-20T11:34:58.772Z,45.9
2022-08-20T11:35:59.711Z,46.9
2022-08-20T11:37:00.771Z,46.8
2022-08-20T11:38:01.774Z,46.1
2022-08-20T11:39:02.832Z,46.1
2022-08-20T11:40:03.926Z,46.2
2022-08-20T11:41:04.798Z,46.9
2022-08-20T11:42:05.978Z,46.7
2022-08-20T11:43:14.469Z,47
2022-08-20T11:44:20.560Z,47.6
2022-08-20T11:45:11.831Z,46.8
2022-08-20T11:46:12.798Z,47.1
2022-08-20T11:47:13.872Z,46.8
2022-08-20T11:48:14.801Z,47
2022-08-20T11:49:15.992Z,46.6
2022-08-20T11:50:19.570Z,46.6
2022-08-20T11:51:18.831Z,46.4
2022-08-20T11:52:19.813Z,46.2
2022-08-20T11:53:21.545Z,46.3
2022-08-20T11:54:21.774Z,47
2022-08-20T11:55:22.931Z,46.9
2022-08-20T11:56:23.774Z,47.4
2022-08-20T11:57:24.791Z,47.3
2022-08-20T11:58:26.036Z,46.8
2022-08-20T11:59:27.856Z,46.9
2022-08-20T12:00:32.506Z,46.5
2022-08-20T12:01:29.973Z,46.3
2022-08-20T12:02:32.147Z,46.7
2022-08-20T12:03:33.812Z,46.6
2022-08-20T12:04:34.990Z,47.1
2022-08-20T12:05:35.832Z,47.6
2022-08-20T12:06:36.897Z,47.3
2022-08-20T12:07:37.860Z,47.2
2022-08-20T12:08:38.854Z,46.9
2022-08-20T12:09:39.899Z,47
2022-08-20T12:10:40.734Z,46.6
2022-08-20T12:11:41.854Z,46.1
2022-08-20T12:12:42.962Z,45.8
2022-08-20T12:13:47.669Z,45.5
2022-08-20T12:14:44.832Z,45.4
2022-08-20T12:15:45.885Z,45.5
2022-08-20T12:16:46.832Z,45.8
2022-08-20T12:17:47.895Z,46.1
2022-08-20T12:18:48.795Z,45.8
2022-08-20T12:19:49.936Z,45
2022-08-20T12:20:50.924Z,44.8
2022-08-20T12:21:51.895Z,44.1
2022-08-20T12:22:52.951Z,44.7
2022-08-20T12:23:53.972Z,44.2
2022-08-20T12:24:54.772Z,44.5
2022-08-20T12:25:55.836Z,45.1
2022-08-20T12:26:56.816Z,45.3
2022-08-20T12:27:57.820Z,45.5
2022-08-20T12:28:58.791Z,45.9
2022-08-20T12:29:59.832Z,46.2
2022-08-20T12:31:00.761Z,46.7
2022-08-20T12:32:01.837Z,47.7
2022-08-20T12:33:02.872Z,48.1
2022-08-20T12:34:03.793Z,48.3
2022-08-20T12:35:04.772Z,49
2022-08-20T12:36:05.853Z,49.2
2022-08-20T12:37:06.823Z,50
2022-08-20T12:38:07.833Z,50.3
2022-08-20T12:39:08.788Z,50.5
2022-08-20T12:40:10.077Z,50.5
2022-08-20T12:41:11.893Z,50.5
2022-08-20T12:42:12.972Z,50.3
2022-08-20T12:43:13.873Z,50.3
2022-08-20T12:44:14.840Z,50.3
2022-08-20T12:45:15.893Z,49.8
2022-08-20T12:46:16.832Z,49.6
2022-08-20T12:47:17.917Z,49.9
2022-08-20T12:48:18.832Z,49.9
2022-08-20T12:49:19.776Z,50.4
2022-08-20T12:50:20.805Z,50.7
2022-08-20T12:51:21.792Z,50.9
2022-08-20T12:52:22.912Z,50.5
2022-08-20T12:53:23.832Z,50.9
2022-08-20T12:54:24.914Z,51.2
2022-08-20T12:55:25.812Z,51.1
2022-08-20T12:56:26.853Z,51.2
2022-08-20T12:57:27.892Z,51
2022-08-20T12:58:28.841Z,50.7
2022-08-20T12:59:30.013Z,50.8
2022-08-20T13:00:32.033Z,50.5
2022-08-20T13:01:33.880Z,50.2
2022-08-20T13:02:34.894Z,50.3
2022-08-20T13:03:43.115Z,49.1
2022-08-20T13:04:36.839Z,48.9
2022-08-20T13:05:37.920Z,47.9
2022-08-20T13:06:38.791Z,47
2022-08-20T13:07:39.952Z,47.3
2022-08-20T13:08:40.812Z,47.7
2022-08-20T13:09:41.892Z,47.4
2022-08-20T13:10:42.806Z,47.2
2022-08-20T13:11:43.832Z,46.8
2022-08-20T13:12:45.092Z,46.7
2022-08-20T13:13:47.012Z,47.1
2022-08-20T13:14:47.871Z,46.3
2022-08-20T13:15:48.871Z,46.2
2022-08-20T13:16:49.845Z,46.4
2022-08-20T13:17:50.784Z,46.4
2022-08-20T13:18:51.973Z,45.6
2022-08-20T13:19:52.872Z,45.9
2022-08-20T13:20:53.854Z,46.7
2022-08-20T13:21:55.306Z,47.3
2022-08-20T13:22:55.919Z,47.7
2022-08-20T13:23:57.292Z,47.9
2022-08-20T13:24:58.913Z,47.9
2022-08-20T13:25:59.833Z,48.2
2022-08-20T13:27:00.912Z,48.3
2022-08-20T13:28:01.872Z,48.5
2022-08-20T13:29:02.852Z,48.2
2022-08-20T13:30:03.850Z,47.7
2022-08-20T13:31:04.832Z,48
2022-08-20T13:32:05.832Z,48.1
2022-08-20T13:33:06.915Z,47.6
2022-08-20T13:34:07.940Z,46.9
2022-08-20T13:35:08.931Z,46.5
2022-08-20T13:36:09.800Z,46.2
2022-08-20T13:37:10.913Z,46.3
2022-08-20T13:38:12.033Z,45.9
2022-08-20T13:39:13.812Z,45.8
2022-08-20T13:40:15.001Z,45.2
2022-08-20T13:41:15.812Z,44.9
2022-08-20T13:42:16.919Z,44.9
2022-08-20T13:43:17.932Z,45.1